createdAt,value
2018-02-06T00:01:53.534Z,-1.50
2018-02-06T00:04:20.747Z,-1.50
2018-02-06T00:06:47.207Z,-1.60
2018-02-06T00:09:13.657Z,-1.50
2018-02-06T00:11:41.004Z,-1.50
2018-02-06T00:14:08.131Z,-1.60
2018-02-06T00:16:34.592Z,-1.60
2018-02-06T00:19:01.761Z,-1.50
2018-02-06T00:21:28.185Z,-1.60
2018-02-06T00:23:56.317Z,-1.60
2018-02-06T00:36:08.566Z,-1.60
2018-02-06T00:38:35.025Z,-1.60
2018-02-06T00:41:01.450Z,-1.50
2018-02-06T00:43:28.072Z,-1.60
2018-02-06T00:45:54.445Z,-1.60
2018-02-06T00:48:21.657Z,-1.50
2018-02-06T00:50:48.068Z,-1.40
2018-02-06T00:53:14.458Z,-1.50
2018-02-06T00:55:41.618Z,-1.40
2018-02-06T00:58:08.034Z,-1.50
2018-02-06T01:00:35.145Z,-1.50
2018-02-06T01:03:01.785Z,-1.50
2018-02-06T01:05:28.209Z,-1.50
2018-02-06T01:07:54.605Z,-1.50
2018-02-06T01:10:20.992Z,-1.50
2018-02-06T01:12:47.439Z,-1.60
2018-02-06T01:15:14.568Z,-1.50
2018-02-06T01:17:40.981Z,-1.50
2018-02-06T01:20:07.385Z,-1.50
2018-02-06T01:22:33.763Z,-1.60
2018-02-06T01:25:00.294Z,-1.60
2018-02-06T01:27:26.698Z,-1.60
2018-02-06T01:29:53.130Z,-1.60
2018-02-06T01:32:19.525Z,-1.60
2018-02-06T01:34:46.798Z,-1.70
2018-02-06T01:37:13.207Z,-1.70
2018-02-06T01:39:40.317Z,-1.70
2018-02-06T01:42:06.755Z,-1.70
2018-02-06T01:44:33.153Z,-1.70
2018-02-06T01:46:59.576Z,-1.60
2018-02-06T01:49:25.976Z,-1.60
2018-02-06T01:51:53.132Z,-1.60
2018-02-06T01:54:20.277Z,-1.60
2018-02-06T01:56:47.436Z,-1.60
2018-02-06T01:59:14.557Z,-1.60
2018-02-06T02:01:40.960Z,-1.70
2018-02-06T02:04:07.361Z,-1.60
2018-02-06T02:06:33.748Z,-1.60
2018-02-06T02:09:00.159Z,-1.70
2018-02-06T02:11:26.553Z,-1.70
2018-02-06T02:13:54.833Z,-1.70
2018-02-06T02:16:21.225Z,-1.80
2018-02-06T02:18:47.646Z,-1.80
2018-02-06T02:21:14.042Z,-1.80
2018-02-06T02:23:40.442Z,-1.90
2018-02-06T02:26:07.665Z,-1.90
2018-02-06T02:28:34.065Z,-1.90
2018-02-06T02:31:00.555Z,-1.90
2018-02-06T02:33:27.680Z,-2.00
2018-02-06T02:35:54.140Z,-2.00
2018-02-06T02:38:21.298Z,-2.00
2018-02-06T02:40:47.670Z,-2.00
2018-02-06T04:40:34.149Z,-2.40
2018-02-06T04:43:01.301Z,-2.40
2018-02-06T04:45:28.425Z,-2.50
2018-02-06T04:47:54.897Z,-2.50
2018-02-06T04:50:21.276Z,-2.40
2018-02-06T04:52:55.407Z,-2.40
2018-02-06T04:55:21.901Z,-2.40
2018-02-06T04:57:48.272Z,-2.40
2018-02-06T05:00:14.760Z,-2.40
2018-02-06T05:02:41.216Z,-2.40
2018-02-06T05:05:07.616Z,-2.30
2018-02-06T05:07:34.000Z,-2.40
2018-02-06T05:10:00.399Z,-2.40
2018-02-06T05:12:26.764Z,-2.40
2018-02-06T05:14:53.250Z,-2.40
2018-02-06T05:17:19.629Z,-2.30
2018-02-06T05:19:46.029Z,-2.20
2018-02-06T05:22:12.441Z,-2.30
2018-02-06T05:24:38.802Z,-2.40
2018-02-06T05:27:05.225Z,-2.30
2018-02-06T05:29:31.621Z,-2.40
2018-02-06T05:31:58.053Z,-2.30
2018-02-06T05:34:24.446Z,-2.30
2018-02-06T05:36:50.901Z,-2.30
2018-02-06T05:39:18.210Z,-2.30
2018-02-06T05:41:44.568Z,-2.40
2018-02-06T05:44:11.014Z,-2.40
2018-02-06T05:46:38.191Z,-2.30
2018-02-06T05:49:04.673Z,-2.30
2018-02-06T05:51:31.177Z,-2.30
2018-02-06T05:53:57.582Z,-2.30
2018-02-06T05:56:24.005Z,-2.30
2018-02-06T05:58:51.226Z,-2.40
2018-02-06T06:01:17.657Z,-2.40
2018-02-06T06:03:44.119Z,-2.40
2018-02-06T06:06:11.256Z,-2.40
2018-02-06T06:08:37.709Z,-2.40
2018-02-06T06:11:04.150Z,-2.40
2018-02-06T06:13:30.541Z,-2.40
2018-02-06T06:15:57.668Z,-2.40
2018-02-06T06:18:24.077Z,-2.40
2018-02-06T06:20:50.456Z,-2.30
2018-02-06T06:23:16.874Z,-2.30
2018-02-06T06:25:43.373Z,-2.20
2018-02-06T06:28:09.892Z,-2.30
2018-02-06T06:30:36.285Z,-2.20
2018-02-06T06:33:02.658Z,-2.20
2018-02-06T06:35:29.090Z,-2.30
2018-02-06T06:37:55.481Z,-2.30
2018-02-06T06:40:21.931Z,-2.30
2018-02-06T06:42:49.165Z,-2.30
2018-02-06T06:45:15.538Z,-2.30
2018-02-06T06:47:41.976Z,-2.30
2018-02-06T06:50:08.358Z,-2.30
2018-02-06T06:52:34.865Z,-2.30
2018-02-06T06:55:01.346Z,-2.30
2018-02-06T06:57:28.541Z,-2.30
2018-02-06T06:59:54.934Z,-2.30
2018-02-06T07:02:21.322Z,-2.30
2018-02-06T07:04:47.724Z,-2.30
2018-02-06T07:07:14.161Z,-2.30
2018-02-06T07:09:40.540Z,-2.30
2018-02-06T07:12:07.697Z,-2.20
2018-02-06T07:14:34.821Z,-2.20
2018-02-06T07:17:01.262Z,-2.30
2018-02-06T07:19:27.657Z,-2.20
2018-02-06T07:21:54.070Z,-2.20
2018-02-06T07:24:20.504Z,-2.20
2018-02-06T07:26:46.901Z,-2.40
2018-02-06T07:29:14.321Z,-2.20
2018-02-06T07:31:40.697Z,-2.20
2018-02-06T07:34:08.060Z,-2.10
2018-02-06T07:36:34.509Z,-2.10
2018-02-06T07:39:00.940Z,-2.00
2018-02-06T07:41:27.309Z,-2.10
2018-02-06T07:43:54.500Z,-2.00
2018-02-06T07:46:21.756Z,-2.00
2018-02-06T07:48:48.383Z,-2.00
2018-02-06T07:51:15.514Z,-1.90
2018-02-06T07:53:42.011Z,-2.00
2018-02-06T07:56:08.462Z,-1.90
2018-02-06T07:58:34.810Z,-1.80
2018-02-06T08:01:01.261Z,-1.90
2018-02-06T08:03:28.373Z,-1.90
2018-02-06T08:05:54.787Z,-1.90
2018-02-06T08:08:21.217Z,-1.80
2018-02-06T08:10:47.696Z,-1.80
2018-02-06T08:13:14.091Z,-1.70
2018-02-06T08:15:40.486Z,-1.70
2018-02-06T08:18:06.938Z,-1.70
2018-02-06T08:20:33.336Z,-1.60
2018-02-06T08:23:00.442Z,-1.60
2018-02-06T08:25:26.856Z,-1.70
2018-02-06T08:27:53.311Z,-1.50
2018-02-06T08:30:19.789Z,-1.50
2018-02-06T08:32:46.237Z,-1.50
2018-02-06T08:35:12.680Z,-1.40
2018-02-06T08:37:39.021Z,-1.50
2018-02-06T08:40:05.559Z,-1.50
2018-02-06T08:42:31.974Z,-1.40
2018-02-06T08:44:58.389Z,-1.20
2018-02-06T08:47:24.840Z,-1.20
2018-02-06T08:49:51.320Z,-1.20
2018-02-06T08:52:17.753Z,-1.20
2018-02-06T08:54:44.200Z,-1.20
2018-02-06T08:57:11.340Z,-1.30
2018-02-06T08:59:37.746Z,-1.30
2018-02-06T09:02:04.158Z,-1.10
2018-02-06T09:04:30.553Z,-1.30
2018-02-06T09:06:57.673Z,-1.10
2018-02-06T09:09:24.077Z,-1.20
2018-02-06T09:11:50.445Z,-1.00
2018-02-06T09:14:16.956Z,-1.10
2018-02-06T09:16:43.349Z,-1.30
2018-02-06T09:19:09.747Z,-1.20
2018-02-06T09:21:36.928Z,-1.20
2018-02-06T09:24:03.362Z,-1.20
2018-02-06T09:26:29.788Z,-1.10
2018-02-06T09:28:56.330Z,-1.00
2018-02-06T09:31:24.220Z,-0.90
2018-02-06T09:33:50.604Z,-0.80
2018-02-06T09:36:17.773Z,-1.00
2018-02-06T09:38:44.194Z,-1.00
2018-02-06T09:41:10.601Z,-1.00
2018-02-06T09:43:36.989Z,-0.90
2018-02-06T09:46:03.390Z,-0.80
2018-02-06T09:48:29.821Z,-0.70
2018-02-06T09:50:56.202Z,-0.70
2018-02-06T09:53:22.711Z,-0.60
2018-02-06T09:55:49.110Z,-0.60
2018-02-06T09:58:16.346Z,-0.60
2018-02-06T10:00:43.215Z,-0.60
2018-02-06T10:03:09.645Z,-0.60
2018-02-06T10:05:36.198Z,-0.80
2018-02-06T10:08:02.640Z,-0.90
2018-02-06T10:10:29.034Z,-0.90
2018-02-06T10:12:56.233Z,-0.60
2018-02-06T10:15:22.670Z,-0.60
2018-02-06T10:17:49.099Z,-0.50
2018-02-06T10:20:15.488Z,-0.40
2018-02-06T10:22:42.065Z,-0.30
2018-02-06T10:25:09.196Z,0.20
2018-02-06T10:27:35.633Z,0.20
2018-02-06T10:30:02.089Z,0.50
2018-02-06T10:32:29.209Z,0.60
2018-02-06T10:34:55.846Z,0.60
2018-02-06T10:37:22.270Z,0.80
2018-02-06T10:39:48.692Z,0.60
2018-02-06T10:42:15.843Z,0.60
2018-02-06T10:44:42.280Z,0.50
2018-02-06T10:50:04.483Z,0.30
2018-02-06T10:52:30.876Z,0.20
2018-02-06T10:54:57.507Z,0.30
2018-02-06T10:57:23.957Z,0.70
2018-02-06T10:59:50.460Z,0.90
2018-02-06T11:02:17.584Z,1.10
2018-02-06T11:04:44.790Z,1.20
2018-02-06T11:07:11.247Z,1.20
2018-02-06T11:09:37.832Z,1.50
2018-02-06T11:12:04.263Z,1.70
2018-02-06T11:14:30.705Z,1.80
2018-02-06T11:16:57.177Z,1.60
2018-02-06T11:19:23.609Z,2.10
2018-02-06T11:21:49.996Z,2.60
2018-02-06T11:24:16.500Z,2.60
2018-02-06T11:26:43.697Z,2.70
2018-02-06T11:29:10.106Z,2.70
2018-02-06T11:31:36.519Z,2.80
2018-02-06T11:34:03.674Z,3.30
2018-02-06T11:36:30.828Z,3.00
2018-02-06T11:38:58.049Z,3.00
2018-02-06T11:41:24.757Z,3.00
2018-02-06T11:43:51.164Z,2.80
2018-02-06T11:46:17.583Z,2.50
2018-02-06T11:48:44.014Z,2.80
2018-02-06T11:51:10.594Z,3.10
2018-02-06T11:53:36.954Z,2.90
2018-02-06T11:56:03.410Z,3.20
2018-02-06T11:58:30.716Z,3.60
2018-02-06T12:00:57.237Z,3.60
2018-02-06T12:03:23.725Z,3.50
2018-02-06T12:05:50.936Z,3.50
2018-02-06T12:08:17.892Z,3.50
2018-02-06T12:10:44.384Z,3.00
2018-02-06T12:13:10.789Z,2.80
2018-02-06T12:15:38.148Z,2.90
2018-02-06T12:18:04.633Z,2.90
2018-02-06T12:20:31.012Z,3.20
2018-02-06T12:22:57.610Z,3.10
2018-02-06T12:25:24.136Z,3.60
2018-02-06T12:27:50.607Z,3.90
2018-02-06T12:30:17.796Z,3.90
2018-02-06T12:32:44.281Z,3.90
2018-02-06T12:35:11.492Z,4.10
2018-02-06T12:37:38.005Z,4.10
2018-02-06T12:40:04.408Z,4.30
2018-02-06T12:42:30.884Z,4.30
2018-02-06T12:44:57.413Z,4.00
2018-02-06T12:47:23.856Z,4.30
2018-02-06T12:49:50.688Z,4.00
2018-02-06T12:52:17.198Z,4.30
2018-02-06T12:54:43.649Z,4.30
2018-02-06T12:57:10.038Z,3.70
2018-02-06T12:59:37.201Z,3.80
2018-02-06T13:02:04.580Z,3.80
2018-02-06T13:04:31.979Z,3.80
2018-02-06T13:06:58.372Z,4.10
2018-02-06T13:09:24.858Z,4.20
2018-02-06T13:11:52.116Z,4.10
2018-02-06T13:14:19.348Z,4.50
2018-02-06T13:16:45.850Z,4.40
2018-02-06T13:19:12.280Z,5.00
2018-02-06T13:24:06.370Z,5.40
2018-02-06T13:26:32.949Z,5.40
2018-02-06T13:28:59.448Z,5.40
2018-02-06T13:31:25.892Z,6.00
2018-02-06T13:33:52.348Z,6.40
2018-02-06T13:36:18.957Z,6.10
2018-02-06T13:38:45.406Z,5.90
2018-02-06T13:41:12.916Z,6.20
2018-02-06T13:43:39.313Z,6.20
2018-02-06T13:46:06.527Z,6.60
2018-02-06T13:48:32.954Z,6.60
2018-02-06T13:50:59.390Z,6.90
2018-02-06T13:53:25.762Z,6.40
2018-02-06T14:08:52.381Z,6.20
2018-02-06T14:11:19.533Z,7.20
2018-02-06T14:13:46.803Z,7.00
2018-02-06T14:16:13.339Z,7.00
2018-02-06T14:18:39.836Z,6.90
2018-02-06T14:24:02.968Z,8.00
2018-02-06T14:26:29.520Z,7.00
2018-02-06T14:28:56.086Z,6.30
2018-02-06T14:31:22.669Z,6.30
2018-02-06T14:33:49.314Z,6.10
2018-02-06T14:36:15.785Z,6.60
2018-02-06T14:38:42.377Z,6.60
2018-02-06T14:41:08.844Z,6.70
2018-02-06T14:43:35.349Z,6.60
2018-02-06T14:46:01.804Z,5.90
2018-02-06T14:48:28.431Z,6.70
2018-02-06T14:50:54.941Z,6.40
2018-02-06T14:53:21.437Z,6.80
2018-02-06T14:55:48.632Z,6.20
2018-02-06T14:58:15.229Z,6.20
2018-02-06T15:00:42.592Z,5.30
2018-02-06T15:03:10.537Z,5.30
2018-02-06T15:05:37.183Z,5.60
2018-02-06T15:08:04.493Z,5.90
2018-02-06T15:10:31.575Z,5.80
2018-02-06T15:12:58.176Z,5.40
2018-02-06T15:15:24.798Z,4.80
2018-02-06T15:17:51.352Z,4.70
2018-02-06T15:20:17.870Z,4.70
2018-02-06T15:22:44.496Z,4.70
2018-02-06T15:25:11.138Z,4.80
2018-02-06T15:27:37.771Z,4.40
2018-02-06T15:30:04.223Z,4.00
2018-02-06T15:32:31.067Z,3.30
2018-02-06T15:34:57.633Z,2.70
2018-02-06T15:37:24.574Z,2.50
2018-02-06T15:39:51.750Z,2.40
2018-02-06T15:42:20.040Z,2.30
2018-02-06T15:44:47.604Z,2.10
2018-02-06T15:47:14.259Z,2.10
2018-02-06T15:49:40.838Z,2.00
2018-02-06T15:52:07.830Z,1.90
2018-02-06T15:54:34.686Z,1.90
2018-02-06T15:57:01.322Z,1.80
2018-02-06T15:59:28.067Z,1.80
2018-02-06T16:01:54.836Z,1.70
2018-02-06T16:04:21.458Z,1.60
2018-02-06T16:06:48.071Z,1.60
2018-02-06T16:09:14.716Z,1.60
2018-02-06T16:11:41.476Z,1.60
2018-02-06T16:14:08.047Z,1.60
2018-02-06T16:16:34.544Z,1.60
2018-02-06T16:19:01.071Z,1.50
2018-02-06T16:21:27.634Z,1.40
2018-02-06T16:23:55.418Z,1.30
2018-02-06T16:26:21.916Z,1.30
2018-02-06T16:28:48.439Z,1.30
2018-02-06T16:31:15.068Z,1.30
2018-02-06T16:33:42.746Z,1.20
2018-02-06T16:36:09.441Z,1.20
2018-02-06T16:38:36.746Z,1.00
2018-02-06T16:41:03.410Z,1.00
2018-02-06T16:43:29.957Z,1.10
2018-02-06T16:45:56.422Z,1.10
2018-02-06T16:48:23.026Z,1.10
2018-02-06T16:50:49.440Z,1.10
2018-02-06T16:53:15.912Z,1.10
2018-02-06T16:55:43.179Z,1.00
2018-02-06T16:58:09.631Z,1.00
2018-02-06T17:00:36.248Z,1.00
2018-02-06T17:03:02.745Z,1.00
2018-02-06T17:05:29.296Z,1.00
2018-02-06T17:07:56.516Z,1.00
2018-02-06T17:10:22.994Z,1.00
2018-02-06T17:12:50.236Z,0.90
2018-02-06T17:15:17.535Z,1.00
2018-02-06T17:17:44.263Z,0.90
2018-02-06T17:20:10.741Z,1.00
2018-02-06T17:22:37.297Z,0.90
2018-02-06T17:25:03.811Z,0.90
2018-02-06T17:27:30.448Z,0.80
2018-02-06T17:29:56.932Z,0.80
2018-02-06T17:32:23.777Z,0.90
2018-02-06T17:34:50.432Z,0.90
2018-02-06T17:37:17.548Z,0.80
2018-02-06T17:39:44.752Z,0.90
2018-02-06T17:42:11.301Z,0.90
2018-02-06T17:44:37.782Z,0.90
2018-02-06T17:47:04.280Z,0.90
2018-02-06T17:49:30.855Z,0.80
2018-02-06T17:51:57.392Z,0.80
2018-02-06T17:54:24.670Z,0.70
2018-02-06T17:56:51.341Z,0.70
2018-02-06T17:59:18.949Z,0.70
2018-02-06T18:01:45.409Z,0.70
2018-02-06T18:04:12.763Z,0.70
2018-02-06T18:06:40.117Z,0.60
2018-02-06T18:09:06.748Z,0.60
2018-02-06T18:11:33.253Z,0.60
2018-02-06T18:16:54.871Z,0.60
2018-02-06T18:19:21.302Z,0.60
2018-02-06T18:24:45.600Z,0.50
2018-02-06T18:27:12.150Z,0.50
2018-02-06T18:29:39.240Z,0.50
2018-02-06T18:32:05.734Z,0.50
2018-02-06T18:34:32.529Z,0.50
2018-02-06T18:36:59.054Z,0.50
2018-02-06T18:39:25.706Z,0.50
2018-02-06T18:41:52.154Z,0.50
2018-02-06T18:44:18.665Z,0.50
2018-02-06T18:46:45.150Z,0.50
2018-02-06T18:49:11.602Z,0.50
2018-02-06T18:51:38.001Z,0.40
2018-02-06T18:54:04.527Z,0.30
2018-02-06T18:56:31.129Z,0.40
2018-02-06T18:58:57.718Z,0.30
2018-02-06T19:01:24.209Z,0.30
2018-02-06T19:03:50.636Z,0.20
2018-02-06T19:06:17.234Z,0.20
2018-02-06T19:08:43.765Z,0.20
2018-02-06T19:11:11.042Z,0.20
2018-02-06T19:13:38.198Z,0.10
2018-02-06T19:16:05.453Z,0.10
2018-02-06T19:18:31.911Z,0.10
2018-02-06T19:20:58.442Z,0.20
2018-02-06T19:23:24.964Z,0.10
2018-02-06T19:25:51.447Z,0.20
2018-02-06T19:28:18.055Z,0.20
2018-02-06T19:30:44.684Z,0.10
2018-02-06T19:33:11.232Z,0.20
2018-02-06T19:35:37.800Z,0.10
2018-02-06T19:38:04.266Z,0.10
2018-02-06T19:40:30.745Z,0.00
2018-02-06T19:42:58.634Z,0.00
2018-02-06T19:45:25.610Z,0.00
2018-02-06T19:47:52.996Z,0.00
2018-02-06T19:50:19.760Z,0.00
2018-02-06T19:52:48.600Z,0.00
2018-02-06T19:55:15.110Z,0.00
2018-02-06T19:57:41.682Z,0.00
2018-02-06T20:00:09.898Z,-0.20
2018-02-06T20:02:36.586Z,-0.20
2018-02-06T20:05:03.127Z,-0.20
2018-02-06T20:07:29.698Z,-0.10
2018-02-06T20:09:56.181Z,-0.10
2018-02-06T20:12:22.960Z,-0.10
2018-02-06T20:14:53.551Z,-0.20
2018-02-06T20:17:20.130Z,-0.20
2018-02-06T20:19:47.509Z,-0.30
2018-02-06T20:22:13.950Z,-0.30
2018-02-06T20:24:40.524Z,-0.20
2018-02-06T20:27:07.364Z,-0.20
2018-02-06T20:29:33.920Z,-0.20
2018-02-06T20:32:00.844Z,-0.20
2018-02-06T20:34:28.358Z,-0.20
2018-02-06T20:36:54.884Z,-0.20
2018-02-06T20:39:22.432Z,-0.20
2018-02-06T20:41:49.380Z,-0.20
2018-02-06T20:44:17.357Z,-0.20
2018-02-06T20:46:44.846Z,-0.20
2018-02-06T20:49:11.482Z,-0.20
2018-02-06T20:51:38.653Z,-0.20
2018-02-06T20:54:05.101Z,-0.20
2018-02-06T20:56:31.793Z,-0.30
2018-02-06T20:58:59.120Z,-0.30
2018-02-06T21:01:25.806Z,-0.20
2018-02-06T21:03:52.406Z,-0.30
2018-02-06T21:06:19.613Z,-0.30
2018-02-06T21:08:46.171Z,-0.40
2018-02-06T21:11:12.638Z,-0.30
2018-02-06T21:13:39.846Z,-0.40
2018-02-06T21:16:08.298Z,-0.40
2018-02-06T21:18:35.034Z,-0.40
2018-02-06T21:21:01.677Z,-0.40
2018-02-06T21:23:28.265Z,-0.50
2018-02-06T21:25:54.878Z,-0.40
2018-02-06T21:28:21.520Z,-0.50
2018-02-06T21:30:48.607Z,-0.40
2018-02-06T21:33:16.327Z,-0.40
2018-02-06T21:35:43.322Z,-0.40
2018-02-06T21:38:09.814Z,-0.30
2018-02-06T21:40:37.131Z,-0.30
2018-02-06T21:43:03.569Z,-0.30
2018-02-06T21:45:30.057Z,-0.20
2018-02-06T21:47:57.245Z,-0.40
2018-02-06T21:50:23.720Z,-0.40
2018-02-06T21:52:50.361Z,-0.40
2018-02-06T21:55:16.911Z,-0.40
2018-02-06T21:57:44.257Z,-0.30
2018-02-06T22:00:11.521Z,-0.30
2018-02-06T22:02:38.737Z,-0.30
2018-02-06T22:05:06.478Z,-0.30
2018-02-06T22:07:33.151Z,-0.30
2018-02-06T22:09:59.596Z,-0.30
2018-02-06T22:12:26.046Z,-0.40
2018-02-06T22:14:52.766Z,-0.40
2018-02-06T22:17:20.186Z,-0.40
2018-02-06T22:19:46.815Z,-0.40
2018-02-06T22:22:13.374Z,-0.40
2018-02-06T22:24:39.797Z,-0.40
2018-02-06T22:27:06.349Z,-0.40
2018-02-06T22:29:32.825Z,-0.40
2018-02-06T22:31:59.265Z,-0.50
2018-02-06T22:34:25.725Z,-0.40
2018-02-06T22:36:52.318Z,-0.40
2018-02-06T22:39:20.110Z,-0.40
2018-02-06T22:41:47.558Z,-0.40
2018-02-06T22:44:14.043Z,-0.40
2018-02-06T22:46:41.736Z,-0.40
2018-02-06T22:49:08.201Z,-0.40
2018-02-06T22:51:34.757Z,-0.40
2018-02-06T22:54:01.172Z,-0.40
2018-02-06T22:56:27.714Z,-0.50
2018-02-06T22:58:54.130Z,-0.50
2018-02-06T23:01:20.537Z,-0.70
2018-02-06T23:03:46.987Z,-0.70
2018-02-06T23:06:13.473Z,-0.60
2018-02-06T23:08:40.946Z,-0.60
2018-02-06T23:11:08.231Z,-0.60
2018-02-06T23:13:34.729Z,-0.60
2018-02-06T23:16:08.777Z,-0.60
2018-02-06T23:18:35.169Z,-0.60
2018-02-06T23:21:02.422Z,-0.70
2018-02-06T23:23:29.727Z,-0.70
2018-02-06T23:25:56.156Z,-0.70
2018-02-06T23:28:22.646Z,-0.70
2018-02-06T23:30:49.820Z,-0.60
2018-02-06T23:33:16.285Z,-0.60
2018-02-06T23:35:42.882Z,-0.70
2018-02-06T23:38:09.304Z,-0.70
2018-02-06T23:40:36.489Z,-0.70
2018-02-06T23:43:02.900Z,-0.70
2018-02-06T23:45:29.359Z,-0.70
2018-02-06T23:47:55.776Z,-0.70
2018-02-06T23:50:22.241Z,-0.60
2018-02-06T23:52:48.788Z,-0.60
2018-02-06T23:55:15.213Z,-0.60
2018-02-06T23:57:41.590Z,-0.70
